Airport ICAO


11:57 UTC

26°C


An affordable passengers' Moving Map for your aircraft. Made for the iPad and the iPhone
More information here

EGLC City


London UNITED KINGDOM   VFR


METAR EGLC 191150Z AUTO 08005KT 9999 NCD 26/09 Q1023 0h07min

TAF EGLC 191054Z 1912/1921 07003KT CAVOK PROB30 1917/1921 8000 1h03min





NOTAMS

OPEN